createdAt,value
2017-11-23T00:00:08.405Z,34.8
2017-11-23T00:02:07.796Z,34.9
2017-11-23T00:04:05.558Z,34.8
2017-11-23T00:06:07.814Z,34.8
2017-11-23T00:08:05.551Z,34.8
2017-11-23T00:10:10.328Z,34.8
2017-11-23T00:12:05.152Z,34.8
2017-11-23T00:14:08.466Z,34.8
2017-11-23T00:16:07.776Z,34.8
2017-11-23T00:18:05.868Z,34.8
2017-11-23T00:20:05.658Z,34.8
2017-11-23T00:22:05.436Z,34.8
2017-11-23T00:24:05.188Z,34.5
2017-11-23T00:26:08.015Z,34.4
2017-11-23T00:28:08.416Z,34.5
2017-11-23T00:30:05.128Z,34.5
2017-11-23T00:32:06.000Z,34.8
2017-11-23T00:34:05.288Z,34.5
2017-11-23T00:36:06.036Z,34.5
2017-11-23T00:38:05.857Z,34.6
2017-11-23T00:40:05.624Z,34.5
2017-11-23T00:42:05.468Z,34.6
2017-11-23T00:44:07.785Z,34.2
2017-11-23T00:46:07.622Z,34.3
2017-11-23T00:48:05.391Z,34.3
2017-11-23T00:50:07.794Z,34.5
2017-11-23T00:52:05.580Z,34.5
2017-11-23T00:54:07.916Z,34.3
2017-11-23T00:56:05.671Z,34.3
2017-11-23T00:58:05.427Z,34.4
2017-11-23T01:00:05.235Z,34.4
2017-11-23T01:02:05.647Z,34.3
2017-11-23T01:04:07.918Z,34.3
2017-11-23T01:06:05.631Z,34.3
2017-11-23T01:08:08.125Z,34.1
2017-11-23T01:10:10.881Z,34.1
2017-11-23T01:12:05.583Z,34.2
2017-11-23T01:14:05.337Z,34.5
2017-11-23T01:16:05.170Z,34.3
2017-11-23T01:18:07.703Z,34.3
2017-11-23T01:20:05.495Z,34.3
2017-11-23T01:22:10.550Z,34.1
2017-11-23T01:24:05.375Z,34.1
2017-11-23T01:26:05.067Z,34.4
2017-11-23T01:28:05.802Z,34.2
2017-11-23T01:30:10.568Z,34.2
2017-11-23T01:32:05.318Z,34.5
2017-11-23T01:34:05.051Z,34.6
2017-11-23T01:36:05.796Z,34.4
2017-11-23T01:38:08.105Z,34.2
2017-11-23T01:40:05.877Z,34.2
2017-11-23T01:42:05.641Z,34.1
2017-11-23T01:44:05.473Z,34.1
2017-11-23T01:46:05.326Z,34
2017-11-23T01:48:05.160Z,34.4
2017-11-23T01:50:05.913Z,34.3
2017-11-23T01:52:05.682Z,33.8
2017-11-23T01:54:05.613Z,33.9
2017-11-23T01:56:05.336Z,33.8
2017-11-23T01:58:05.033Z,33.8
2017-11-23T02:00:05.742Z,33.6
2017-11-23T02:02:05.509Z,33.6
2017-11-23T02:04:10.318Z,33.1
2017-11-23T02:06:05.272Z,33.1
2017-11-23T02:08:06.041Z,33.2
2017-11-23T02:10:05.763Z,33.3
2017-11-23T02:12:05.471Z,33.5
2017-11-23T02:14:05.258Z,33.4
2017-11-23T02:16:05.963Z,33.1
2017-11-23T02:18:05.910Z,33.1
2017-11-23T02:20:05.758Z,33.3
2017-11-23T02:22:07.995Z,32.9
2017-11-23T02:24:05.743Z,33
2017-11-23T02:26:05.488Z,32.9
2017-11-23T02:28:05.798Z,32.7
2017-11-23T02:30:10.697Z,32.5
2017-11-23T02:32:08.106Z,33
2017-11-23T02:34:05.900Z,32.9
2017-11-23T02:36:05.701Z,32.6
2017-11-23T02:38:05.548Z,32.6
2017-11-23T02:40:05.885Z,32.8
2017-11-23T02:42:05.825Z,32.5
2017-11-23T02:44:05.575Z,32.7
2017-11-23T02:46:05.506Z,32.6
2017-11-23T02:48:05.286Z,32.6
2017-11-23T02:50:05.214Z,32.5
2017-11-23T02:52:05.515Z,32.5
2017-11-23T02:54:05.920Z,32.2
2017-11-23T02:56:05.841Z,32.1
2017-11-23T02:58:05.549Z,32.2
2017-11-23T03:00:05.461Z,32.4
2017-11-23T03:02:12.799Z,32.3
2017-11-23T03:04:05.000Z,32.3
2017-11-23T03:06:05.850Z,32.3
2017-11-23T03:08:05.820Z,32.4
2017-11-23T03:10:05.696Z,32.1
2017-11-23T03:12:05.523Z,32.4
2017-11-23T03:14:07.808Z,32.4
2017-11-23T03:16:05.536Z,32.3
2017-11-23T03:18:10.557Z,32
2017-11-23T03:20:05.308Z,31.9
2017-11-23T03:22:05.062Z,32.3
2017-11-23T03:24:05.810Z,32.4
2017-11-23T03:26:05.594Z,32.2
2017-11-23T03:28:07.870Z,32
2017-11-23T03:30:08.220Z,32.1
2017-11-23T03:32:06.041Z,31.8
2017-11-23T03:34:05.830Z,32.2
2017-11-23T03:36:08.231Z,32.1
2017-11-23T03:38:06.049Z,31.9
2017-11-23T03:40:05.765Z,32
2017-11-23T03:42:05.496Z,32.2
2017-11-23T03:44:05.268Z,32.3
2017-11-23T03:46:06.044Z,32.2
2017-11-23T03:48:05.723Z,31.9
2017-11-23T03:50:05.637Z,32.1
2017-11-23T03:52:10.417Z,32.1
2017-11-23T03:54:05.119Z,32
2017-11-23T03:56:05.861Z,32
2017-11-23T03:58:05.589Z,32
2017-11-23T04:00:05.300Z,32.5
2017-11-23T04:02:05.162Z,32.1
2017-11-23T04:04:05.939Z,31.8
2017-11-23T04:06:05.636Z,32.4
2017-11-23T04:08:05.500Z,31.8
2017-11-23T04:10:08.426Z,32.3
2017-11-23T04:12:05.645Z,32.3
2017-11-23T04:14:05.458Z,32.1
2017-11-23T04:16:05.185Z,31.6
2017-11-23T04:18:05.165Z,32
2017-11-23T04:20:05.988Z,31.5
2017-11-23T04:22:05.704Z,32.2
2017-11-23T04:24:08.061Z,31.7
2017-11-23T04:26:08.355Z,31.8
2017-11-23T04:28:05.161Z,31.6
2017-11-23T04:30:05.952Z,31.7
2017-11-23T04:32:08.278Z,31.5
2017-11-23T04:34:05.739Z,31.5
2017-11-23T04:36:05.763Z,31.5
2017-11-23T04:38:08.296Z,31.9
2017-11-23T04:40:05.138Z,31.6
2017-11-23T04:42:05.964Z,31.8
2017-11-23T04:44:05.689Z,31.6
2017-11-23T04:46:05.509Z,31.7
2017-11-23T04:48:05.264Z,31.4
2017-11-23T04:50:05.056Z,31.7
2017-11-23T04:52:10.435Z,32
2017-11-23T04:54:08.302Z,32
2017-11-23T04:56:05.179Z,31.9
2017-11-23T04:58:05.976Z,31.8
2017-11-23T05:00:05.948Z,32.1
2017-11-23T05:02:05.392Z,31.5
2017-11-23T05:04:07.638Z,32.2
2017-11-23T05:06:05.989Z,32.2
2017-11-23T05:08:05.721Z,32
2017-11-23T05:10:05.451Z,31.9
2017-11-23T05:12:05.164Z,31.7
2017-11-23T05:14:05.094Z,31.6
2017-11-23T05:16:05.815Z,32
2017-11-23T05:18:05.813Z,31.8
2017-11-23T05:20:05.595Z,32
2017-11-23T05:22:05.812Z,31.9
2017-11-23T05:24:05.659Z,31.8
2017-11-23T05:26:05.450Z,31.9
2017-11-23T05:28:05.249Z,31.9
2017-11-23T05:30:05.980Z,32.2
2017-11-23T05:32:05.755Z,32.2
2017-11-23T05:34:08.137Z,31.5
2017-11-23T05:36:08.381Z,32.1
2017-11-23T05:38:05.132Z,32.1
2017-11-23T05:40:05.844Z,31.8
2017-11-23T05:42:15.782Z,31.8
2017-11-23T05:44:05.032Z,31.8
2017-11-23T05:46:10.902Z,31.9
2017-11-23T05:48:05.597Z,31.9
2017-11-23T05:50:05.355Z,32.1
2017-11-23T05:52:07.656Z,31.8
2017-11-23T05:54:08.034Z,31.7
2017-11-23T05:56:08.952Z,31.6
2017-11-23T05:58:05.824Z,31.5
2017-11-23T06:00:05.529Z,31.4
2017-11-23T06:02:05.276Z,31.7
2017-11-23T06:04:05.980Z,31.5
2017-11-23T06:06:08.233Z,32
2017-11-23T06:08:06.501Z,31.9
2017-11-23T06:10:13.038Z,31.8
2017-11-23T06:12:05.792Z,31.7
2017-11-23T06:14:05.572Z,31.6
2017-11-23T06:16:05.271Z,32
2017-11-23T06:18:07.835Z,31.9
2017-11-23T06:20:05.615Z,31.7
2017-11-23T06:22:08.008Z,31.5
2017-11-23T06:24:05.720Z,31.3
2017-11-23T06:26:05.452Z,31.6
2017-11-23T06:28:12.814Z,31.7
2017-11-23T06:30:05.713Z,31.8
2017-11-23T06:32:08.031Z,31.6
2017-11-23T06:34:05.367Z,31.6
2017-11-23T06:36:05.198Z,31.6
2017-11-23T06:38:05.908Z,31.7
2017-11-23T06:40:05.678Z,31.9
2017-11-23T06:42:05.415Z,31.7
2017-11-23T06:44:05.692Z,31.9
2017-11-23T06:46:05.938Z,31.3
2017-11-23T06:48:05.661Z,31.5
2017-11-23T06:50:05.372Z,31.6
2017-11-23T06:52:10.783Z,31.8
2017-11-23T06:54:06.109Z,31.8
2017-11-23T06:56:05.813Z,31.6
2017-11-23T06:58:05.546Z,31.7
2017-11-23T07:00:07.837Z,32.1
2017-11-23T07:02:05.076Z,32.1
2017-11-23T07:04:05.433Z,31.4
2017-11-23T07:06:05.173Z,31.4
2017-11-23T07:08:05.903Z,31.3
2017-11-23T07:10:08.194Z,31.4
2017-11-23T07:12:05.999Z,31.4
2017-11-23T07:14:05.741Z,31.8
2017-11-23T07:16:05.469Z,31.8
2017-11-23T07:18:05.351Z,31.9
2017-11-23T07:20:05.737Z,31.6
2017-11-23T07:22:12.830Z,32
2017-11-23T07:24:05.069Z,31.9
2017-11-23T07:26:06.036Z,31.8
2017-11-23T07:28:05.992Z,31.6
2017-11-23T07:30:05.246Z,31.8
2017-11-23T07:32:05.097Z,32.1
2017-11-23T07:34:08.606Z,31.7
2017-11-23T07:36:05.394Z,31.8
2017-11-23T07:38:05.441Z,32.1
2017-11-23T07:40:08.394Z,6.5
2017-11-23T07:42:07.669Z,32
2017-11-23T07:44:08.007Z,32
2017-11-23T07:46:05.776Z,32
2017-11-23T07:48:05.494Z,32.1
2017-11-23T07:50:07.757Z,32.3
2017-11-23T07:52:05.682Z,32.3
2017-11-23T07:54:05.990Z,32.4
2017-11-23T07:56:08.285Z,32.6
2017-11-23T07:58:07.588Z,33
2017-11-23T08:00:05.898Z,32.7
2017-11-23T08:02:05.620Z,32.9
2017-11-23T08:04:06.857Z,32.8
2017-11-23T08:06:05.624Z,32.9
2017-11-23T08:08:05.622Z,32.9
2017-11-23T08:10:05.365Z,33.1
2017-11-23T08:12:05.062Z,33.1
2017-11-23T08:14:10.930Z,33.1
2017-11-23T08:16:05.617Z,33.1
2017-11-23T08:18:05.519Z,33.1
2017-11-23T08:20:05.474Z,33.1
2017-11-23T08:22:07.747Z,33
2017-11-23T08:24:05.589Z,33
2017-11-23T08:26:05.912Z,33
2017-11-23T08:28:08.227Z,33.2
2017-11-23T08:30:05.424Z,33
2017-11-23T08:32:05.271Z,33.2
2017-11-23T08:34:06.006Z,33.3
2017-11-23T08:36:05.806Z,33.1
2017-11-23T08:38:05.544Z,33.1
2017-11-23T08:40:07.778Z,33.1
2017-11-23T08:42:10.667Z,32.9
2017-11-23T08:44:05.374Z,33.3
2017-11-23T08:46:05.068Z,33.5
2017-11-23T08:48:05.874Z,33.2
2017-11-23T08:50:05.756Z,33.4
2017-11-23T08:52:05.002Z,33.2
2017-11-23T08:54:05.276Z,33.2
2017-11-23T08:56:06.002Z,33.3
2017-11-23T08:58:05.818Z,33.3
2017-11-23T09:00:05.590Z,33.3
2017-11-23T09:02:05.277Z,33.3
2017-11-23T09:04:05.961Z,33.3
2017-11-23T09:06:05.734Z,33.3
2017-11-23T09:08:08.492Z,33.4
2017-11-23T09:10:05.198Z,33.6
2017-11-23T09:12:08.470Z,33.5
2017-11-23T09:14:10.300Z,33.5
2017-11-23T09:16:05.059Z,33.5
2017-11-23T09:18:06.041Z,33.6
2017-11-23T09:20:15.872Z,33.8
2017-11-23T09:22:08.191Z,33.8
2017-11-23T09:24:05.924Z,33.8
2017-11-23T09:26:08.180Z,34
2017-11-23T09:28:05.860Z,34
2017-11-23T09:30:06.425Z,34
2017-11-23T09:32:10.347Z,34.4
2017-11-23T09:34:07.595Z,34.3
2017-11-23T09:36:05.299Z,34.3
2017-11-23T09:38:07.557Z,34.5
2017-11-23T09:40:07.961Z,34.5
2017-11-23T09:42:08.237Z,34.6
2017-11-23T09:44:07.996Z,34.4
2017-11-23T09:46:08.589Z,34.7
2017-11-23T09:48:05.392Z,34.7
2017-11-23T09:50:10.252Z,34.8
2017-11-23T09:52:05.497Z,34.6
2017-11-23T09:54:07.785Z,34.6
2017-11-23T09:56:05.502Z,34.6
2017-11-23T09:58:05.213Z,34.7
2017-11-23T10:00:06.013Z,34.8
2017-11-23T10:02:05.405Z,35
2017-11-23T10:04:10.171Z,34.9
2017-11-23T10:06:06.051Z,34.9
2017-11-23T10:08:05.780Z,35.2
2017-11-23T10:10:05.269Z,35.6
2017-11-23T10:12:05.992Z,35.3
2017-11-23T10:14:05.726Z,35.5
2017-11-23T10:16:05.423Z,35.2
2017-11-23T10:18:05.343Z,35.2
2017-11-23T10:20:05.109Z,35.6
2017-11-23T10:22:05.844Z,35.8
2017-11-23T10:24:05.574Z,36.2
2017-11-23T10:26:05.335Z,36.3
2017-11-23T10:28:05.101Z,36.2
2017-11-23T10:30:05.801Z,36
2017-11-23T10:32:08.051Z,36.3
2017-11-23T10:34:05.407Z,36.3
2017-11-23T10:36:07.691Z,36.1
2017-11-23T10:38:05.461Z,36.1
2017-11-23T10:40:07.769Z,36.1
2017-11-23T10:42:05.511Z,36.1
2017-11-23T10:44:05.776Z,36.2
2017-11-23T10:46:05.492Z,36.1
2017-11-23T10:48:05.268Z,36.3
2017-11-23T10:50:05.945Z,36.1
2017-11-23T10:52:08.356Z,36.1
2017-11-23T10:54:05.187Z,35.9
2017-11-23T10:56:08.433Z,36
2017-11-23T10:58:10.200Z,36.1
2017-11-23T11:00:05.935Z,36
2017-11-23T11:02:06.699Z,35.7
2017-11-23T11:04:05.419Z,36.4
2017-11-23T11:06:07.695Z,36.2
2017-11-23T11:08:13.242Z,36.3
2017-11-23T11:10:08.081Z,36.8
2017-11-23T11:12:05.812Z,36.7
2017-11-23T11:14:05.545Z,36.3
2017-11-23T11:16:05.803Z,36.7
2017-11-23T11:18:05.727Z,36.7
2017-11-23T11:20:08.067Z,36.9
2017-11-23T11:22:08.338Z,36.3
2017-11-23T11:24:05.590Z,36.3
2017-11-23T11:26:05.288Z,36.1
2017-11-23T11:28:06.002Z,36.2
2017-11-23T11:30:05.740Z,36.3
2017-11-23T11:32:05.519Z,37
2017-11-23T11:34:05.276Z,36.5
2017-11-23T11:36:06.055Z,36.1
2017-11-23T11:38:05.835Z,36.1
2017-11-23T11:40:05.592Z,37
2017-11-23T11:42:05.331Z,36.1
2017-11-23T11:44:05.072Z,36.3
2017-11-23T11:46:05.811Z,35.8
2017-11-23T11:48:07.554Z,36.2
2017-11-23T11:50:07.791Z,36.4
2017-11-23T11:52:05.575Z,36.7
2017-11-23T11:54:08.048Z,36.8
2017-11-23T11:56:05.840Z,36.8
2017-11-23T11:58:08.202Z,36.4
2017-11-23T12:00:05.349Z,36.6
2017-11-23T12:02:05.077Z,36.8
2017-11-23T12:04:10.845Z,36.8
2017-11-23T12:06:05.611Z,36.8
2017-11-23T12:08:05.413Z,38
2017-11-23T12:10:05.156Z,36.8
2017-11-23T12:12:05.917Z,36.7
2017-11-23T12:14:05.930Z,37
2017-11-23T12:16:05.631Z,37
2017-11-23T12:18:15.687Z,38.6
2017-11-23T12:20:05.431Z,38.1
2017-11-23T12:22:05.391Z,38.1
2017-11-23T12:24:07.615Z,37.7
2017-11-23T12:26:10.924Z,37.8
2017-11-23T12:28:05.615Z,38.1
2017-11-23T12:30:05.306Z,39.3
2017-11-23T12:32:05.039Z,37.2
2017-11-23T12:34:05.793Z,38
2017-11-23T12:36:05.533Z,39.5
2017-11-23T12:38:10.337Z,37
2017-11-23T12:40:05.545Z,37.3
2017-11-23T12:42:05.274Z,37.9
2017-11-23T12:44:05.207Z,38.8
2017-11-23T12:46:05.928Z,37.9
2017-11-23T12:48:05.615Z,38.8
2017-11-23T12:50:05.831Z,37.6
2017-11-23T12:52:05.505Z,38.4
2017-11-23T12:54:05.263Z,38.5
2017-11-23T12:56:06.005Z,37.9
2017-11-23T12:58:05.828Z,40.9
2017-11-23T13:00:05.972Z,38.8
2017-11-23T13:02:12.753Z,38.8
2017-11-23T13:04:05.457Z,38.5
2017-11-23T13:06:07.700Z,39.5
2017-11-23T13:08:10.577Z,38.6
2017-11-23T13:10:08.368Z,40
2017-11-23T13:12:05.128Z,39.8
2017-11-23T13:14:07.926Z,38.3
2017-11-23T13:16:10.664Z,39.8
2017-11-23T13:18:05.603Z,39.4
2017-11-23T13:20:08.457Z,39.1
2017-11-23T13:22:05.177Z,39.3
2017-11-23T13:24:08.200Z,39.1
2017-11-23T13:26:05.899Z,38.9
2017-11-23T13:28:08.300Z,38.8
2017-11-23T13:30:05.071Z,39
2017-11-23T13:32:05.884Z,38.5
2017-11-23T13:34:08.104Z,38.4
2017-11-23T13:36:06.391Z,38.3
2017-11-23T13:38:05.232Z,38.7
2017-11-23T13:40:05.511Z,39.2
2017-11-23T13:42:09.748Z,38.9
2017-11-23T13:44:07.607Z,38.4
2017-11-23T13:46:05.527Z,38.6
2017-11-23T13:48:05.257Z,38.3
2017-11-23T13:50:06.008Z,39.2
2017-11-23T13:52:09.344Z,39
2017-11-23T13:54:05.088Z,39.1
2017-11-23T13:56:05.357Z,38.5
2017-11-23T13:58:05.097Z,38.2
2017-11-23T14:00:05.854Z,38.4
2017-11-23T14:02:05.620Z,37.9
2017-11-23T14:04:05.378Z,38.8
2017-11-23T14:06:05.337Z,37.9
2017-11-23T14:08:05.129Z,38.4
2017-11-23T14:10:05.826Z,37.5
2017-11-23T14:12:10.158Z,38
2017-11-23T14:14:05.911Z,38
2017-11-23T14:16:05.724Z,39
2017-11-23T14:18:05.669Z,39.4
2017-11-23T14:20:05.470Z,38.8
2017-11-23T14:22:06.208Z,38.7
2017-11-23T14:24:10.982Z,38.8
2017-11-23T14:26:05.723Z,38.8
2017-11-23T14:28:13.083Z,38.9
2017-11-23T14:30:05.789Z,38.6
2017-11-23T14:32:08.060Z,39.1
2017-11-23T14:34:05.814Z,38.9
2017-11-23T14:36:05.515Z,39
2017-11-23T14:38:05.196Z,39
2017-11-23T14:40:06.010Z,39
2017-11-23T14:42:05.889Z,39.1
2017-11-23T14:44:05.579Z,39.1
2017-11-23T14:46:07.891Z,39.7
2017-11-23T14:48:05.124Z,39.7
2017-11-23T14:50:05.457Z,39.8
2017-11-23T14:52:05.750Z,40.4
2017-11-23T14:54:08.008Z,40.1
2017-11-23T14:56:05.753Z,40.1
2017-11-23T14:58:05.513Z,39.8
2017-11-23T15:00:05.240Z,40.4
2017-11-23T15:02:08.510Z,39.8
2017-11-23T15:04:05.207Z,39.8
2017-11-23T15:06:08.084Z,39.8
2017-11-23T15:08:08.373Z,39.8
2017-11-23T15:10:08.118Z,40.7
2017-11-23T15:12:08.490Z,40.1
2017-11-23T15:14:07.897Z,40.2
2017-11-23T15:16:05.624Z,40.2
2017-11-23T15:18:05.101Z,40.3
2017-11-23T15:20:05.412Z,40.1
2017-11-23T15:22:05.186Z,39.9
2017-11-23T15:24:05.965Z,40
2017-11-23T15:26:05.785Z,39.9
2017-11-23T15:28:05.567Z,39.9
2017-11-23T15:30:05.264Z,40.6
2017-11-23T15:32:05.983Z,41.2
2017-11-23T15:34:05.241Z,40.7
2017-11-23T15:36:08.131Z,40.8
2017-11-23T15:38:05.887Z,40.8
2017-11-23T15:40:05.684Z,40.8
2017-11-23T15:42:05.410Z,41.8
2017-11-23T15:44:07.825Z,41.6
2017-11-23T15:46:07.565Z,41.5
2017-11-23T15:48:05.296Z,41.6
2017-11-23T15:50:06.016Z,41.9
2017-11-23T15:52:08.277Z,41.8
2017-11-23T15:54:05.998Z,41.8
2017-11-23T15:56:05.758Z,41.8
2017-11-23T15:58:05.526Z,41.6
2017-11-23T16:00:08.547Z,42
2017-11-23T16:02:05.845Z,42
2017-11-23T16:04:08.084Z,42.3
2017-11-23T16:06:08.291Z,42.2
2017-11-23T16:08:07.575Z,42.6
2017-11-23T16:10:05.867Z,42.6
2017-11-23T16:12:08.136Z,41.9
2017-11-23T16:14:05.891Z,41.9
2017-11-23T16:16:05.776Z,41.9
2017-11-23T16:18:10.755Z,41.3
2017-11-23T16:20:05.532Z,41.2
2017-11-23T16:22:10.299Z,41.3
2017-11-23T16:24:05.121Z,41.3
2017-11-23T16:26:05.795Z,41.2
2017-11-23T16:28:05.749Z,41
2017-11-23T16:30:05.466Z,41.3
2017-11-23T16:32:05.222Z,41.2
2017-11-23T16:34:13.183Z,40.8
2017-11-23T16:36:05.160Z,40.8
2017-11-23T16:38:05.937Z,41
2017-11-23T16:40:05.205Z,41.1
2017-11-23T16:42:05.110Z,40.8
2017-11-23T16:44:05.872Z,41
2017-11-23T16:46:10.648Z,41.1
2017-11-23T16:48:05.838Z,41.1
2017-11-23T16:50:08.144Z,40.5
2017-11-23T16:52:08.423Z,40.4
2017-11-23T16:54:10.733Z,40.5
2017-11-23T16:56:10.443Z,40.5
2017-11-23T16:58:05.264Z,40.6
2017-11-23T17:00:06.017Z,40.6
2017-11-23T17:02:07.517Z,40.7
2017-11-23T17:04:05.288Z,40.8
2017-11-23T17:06:05.987Z,41.1
2017-11-23T17:08:05.286Z,41.1
2017-11-23T17:10:05.987Z,41.1
2017-11-23T17:12:05.730Z,41.1
2017-11-23T17:14:08.071Z,41.1
2017-11-23T17:16:05.791Z,41.1
2017-11-23T17:18:05.692Z,41.3
2017-11-23T17:20:08.523Z,41
2017-11-23T17:22:05.411Z,41
2017-11-23T17:24:05.163Z,40.9
2017-11-23T17:26:05.897Z,40.9
2017-11-23T17:28:05.604Z,40.9
2017-11-23T17:30:05.434Z,40.9
2017-11-23T17:32:05.214Z,40.9
2017-11-23T17:34:05.895Z,40.9
2017-11-23T17:36:05.590Z,40.9
2017-11-23T17:38:05.324Z,40.9
2017-11-23T17:40:05.095Z,40.9
2017-11-23T17:42:08.323Z,40.8
2017-11-23T17:44:05.176Z,40.8
2017-11-23T17:46:11.041Z,40.6
2017-11-23T17:48:08.311Z,40.8
2017-11-23T17:50:05.056Z,40.6
2017-11-23T17:52:08.353Z,40.6
2017-11-23T17:54:05.747Z,40.6
2017-11-23T17:56:05.498Z,40.8
2017-11-23T17:58:05.221Z,40.5
2017-11-23T18:00:05.974Z,40.5
2017-11-23T18:02:08.357Z,40.7
2017-11-23T18:04:05.679Z,40.5
2017-11-23T18:06:05.420Z,40.6
2017-11-23T18:08:07.786Z,40.5
2017-11-23T18:10:12.780Z,40.5
2017-11-23T18:12:05.555Z,40.5
2017-11-23T18:14:05.815Z,40.6
2017-11-23T18:16:05.497Z,40.5
2017-11-23T18:18:05.437Z,40.5
2017-11-23T18:20:06.687Z,40.5
2017-11-23T18:22:05.950Z,40.6
2017-11-23T18:24:05.670Z,40.8
2017-11-23T18:26:05.429Z,40.8
2017-11-23T18:28:07.696Z,40.7
2017-11-23T18:30:13.088Z,40.7
2017-11-23T18:32:07.912Z,40.6
2017-11-23T18:34:08.117Z,40.7
2017-11-23T18:36:05.775Z,40.6
2017-11-23T18:38:08.006Z,40.6
2017-11-23T18:40:08.453Z,40.6
2017-11-23T18:42:05.181Z,40.6
2017-11-23T18:44:05.920Z,40.5
2017-11-23T18:46:05.667Z,40.5
2017-11-23T18:48:05.420Z,40.4
2017-11-23T18:50:06.681Z,40.6
2017-11-23T18:52:05.695Z,40.3
2017-11-23T18:54:10.493Z,40.2
2017-11-23T18:56:05.249Z,40.4
2017-11-23T18:58:06.055Z,40.4
2017-11-23T19:00:08.489Z,40.2
2017-11-23T19:02:05.435Z,40.2
2017-11-23T19:04:08.242Z,40.3
2017-11-23T19:06:06.060Z,40.3
2017-11-23T19:08:05.354Z,40.3
2017-11-23T19:10:05.118Z,40.3
2017-11-23T19:12:05.879Z,40.2
2017-11-23T19:14:05.673Z,40.2
2017-11-23T19:16:05.876Z,40.2
2017-11-23T19:18:05.408Z,40.2
2017-11-23T19:20:05.239Z,40.1
2017-11-23T19:22:06.036Z,40.2
2017-11-23T19:24:05.540Z,40.2
2017-11-23T19:26:13.392Z,40.1
2017-11-23T19:28:05.146Z,40.1
2017-11-23T19:30:05.839Z,40.1
2017-11-23T19:32:05.583Z,40.1
2017-11-23T19:34:07.843Z,40.1
2017-11-23T19:36:05.567Z,40.1
2017-11-23T19:38:05.708Z,40
2017-11-23T19:40:05.194Z,40
2017-11-23T19:42:05.962Z,40
2017-11-23T19:44:05.335Z,40.3
2017-11-23T19:46:05.634Z,40.4
2017-11-23T19:48:05.348Z,40.2
2017-11-23T19:50:05.108Z,40.1
2017-11-23T19:52:05.798Z,40.1
2017-11-23T19:54:05.537Z,40.1
2017-11-23T19:56:05.311Z,40
2017-11-23T19:58:07.667Z,40.2
2017-11-23T20:00:06.120Z,40
2017-11-23T20:02:05.910Z,40.2
2017-11-23T20:04:05.047Z,40.2
2017-11-23T20:06:05.753Z,40.2
2017-11-23T20:08:05.530Z,40.2
2017-11-23T20:10:08.052Z,40.4
2017-11-23T20:12:05.514Z,40.4
2017-11-23T20:14:07.777Z,40.4
2017-11-23T20:16:05.473Z,40.4
2017-11-23T20:18:05.405Z,40.4
2017-11-23T20:20:10.133Z,40.4
2017-11-23T20:22:05.190Z,40.4
2017-11-23T20:24:10.957Z,40.4
2017-11-23T20:26:05.776Z,40.4
2017-11-23T20:28:08.271Z,40.4
2017-11-23T20:30:10.268Z,40.7
2017-11-23T20:32:05.238Z,40.4
2017-11-23T20:34:05.493Z,40.7
2017-11-23T20:36:07.753Z,40.7
2017-11-23T20:38:05.749Z,40.4
2017-11-23T20:40:08.261Z,40.4
2017-11-23T20:42:07.980Z,40.4
2017-11-23T20:44:08.291Z,40.7
2017-11-23T20:46:05.045Z,40.4
2017-11-23T20:48:05.948Z,40.4
2017-11-23T20:50:08.238Z,40.4
2017-11-23T20:52:05.922Z,40.4
2017-11-23T20:54:05.602Z,40.4
2017-11-23T20:56:10.992Z,40.4
2017-11-23T20:58:05.763Z,40.7
2017-11-23T21:00:08.069Z,40.4
2017-11-23T21:02:05.756Z,40.4
2017-11-23T21:04:07.734Z,40.3
2017-11-23T21:06:05.083Z,40.5
2017-11-23T21:08:08.350Z,40
2017-11-23T21:10:05.052Z,40.3
2017-11-23T21:12:06.001Z,40.1
2017-11-23T21:14:05.760Z,40.3
2017-11-23T21:16:05.740Z,40.3
2017-11-23T21:18:05.939Z,40.2
2017-11-23T21:20:07.708Z,40.1
2017-11-23T21:22:05.466Z,40.1
2017-11-23T21:24:07.737Z,40.2
2017-11-23T21:26:05.680Z,40.2
2017-11-23T21:28:05.396Z,40.1
2017-11-23T21:30:07.673Z,40.1
2017-11-23T21:32:12.977Z,40.1
2017-11-23T21:34:05.214Z,40.1
2017-11-23T21:36:05.897Z,40.1
2017-11-23T21:38:08.181Z,40.1
2017-11-23T21:40:05.868Z,40.1
2017-11-23T21:42:05.058Z,40
2017-11-23T21:44:05.853Z,40
2017-11-23T21:46:05.594Z,39.9
2017-11-23T21:48:07.857Z,40.2
2017-11-23T21:50:08.169Z,40
2017-11-23T21:52:05.517Z,40
2017-11-23T21:54:17.857Z,40
2017-11-23T21:56:05.163Z,40
2017-11-23T21:58:05.503Z,40
2017-11-23T22:00:06.716Z,39.9
2017-11-23T22:02:08.046Z,40
2017-11-23T22:04:08.386Z,40
2017-11-23T22:06:05.616Z,40
2017-11-23T22:08:05.387Z,40.1
2017-11-23T22:10:05.082Z,39.9
2017-11-23T22:12:05.298Z,39.9
2017-11-23T22:14:06.569Z,39.9
2017-11-23T22:16:05.319Z,40.1
2017-11-23T22:18:05.253Z,40.1
2017-11-23T22:20:08.511Z,39.9
2017-11-23T22:22:05.230Z,39.9
2017-11-23T22:24:05.186Z,40
2017-11-23T22:26:05.905Z,40
2017-11-23T22:28:05.614Z,40
2017-11-23T22:30:05.430Z,40
2017-11-23T22:32:05.244Z,39.8
2017-11-23T22:34:05.565Z,39.9
2017-11-23T22:36:05.249Z,39.7
2017-11-23T22:38:05.970Z,39.7
2017-11-23T22:40:05.877Z,39.7
2017-11-23T22:42:05.615Z,39.7
2017-11-23T22:44:05.400Z,39.7
2017-11-23T22:46:05.100Z,39.7
2017-11-23T22:48:07.953Z,39.7
2017-11-23T22:50:05.766Z,39.4
2017-11-23T22:52:05.602Z,39.4
2017-11-23T22:54:05.607Z,39.4
2017-11-23T22:56:08.018Z,39.4
2017-11-23T22:58:08.283Z,39.4
2017-11-23T23:00:05.505Z,39.4
2017-11-23T23:02:05.743Z,39.5
2017-11-23T23:04:05.495Z,39.4
2017-11-23T23:06:05.384Z,39.4
2017-11-23T23:08:05.182Z,39.4
2017-11-23T23:10:08.452Z,39.3
2017-11-23T23:12:05.241Z,39.3
2017-11-23T23:14:08.521Z,39.3
2017-11-23T23:16:05.304Z,39.3
2017-11-23T23:18:05.459Z,39.3
2017-11-23T23:20:05.269Z,39.3
2017-11-23T23:22:06.022Z,39.4
2017-11-23T23:24:05.754Z,39.1
2017-11-23T23:26:05.449Z,39.1
2017-11-23T23:28:08.473Z,39.1
2017-11-23T23:30:05.162Z,39.1
2017-11-23T23:32:05.906Z,39.2
2017-11-23T23:34:05.660Z,39.2
2017-11-23T23:36:05.416Z,39.1
2017-11-23T23:38:07.679Z,39.1
2017-11-23T23:40:05.504Z,39.2
2017-11-23T23:42:08.288Z,39.1
2017-11-23T23:44:06.124Z,39.1
2017-11-23T23:46:05.857Z,39
2017-11-23T23:48:08.306Z,39.2
2017-11-23T23:50:05.024Z,39
2017-11-23T23:52:05.771Z,39.2
2017-11-23T23:54:07.776Z,39
2017-11-23T23:56:08.061Z,38.9
2017-11-23T23:58:05.783Z,39
